Time;durP1;ratioP1;P1;durP2;ratioP2;P2;SDS_P1;SDS_P2;PMS_P1;PMS_P2;Temp;Humidity;BMP_temperature;BMP_pressure;BME280_temperature;BME280_humidity;BME280_pressure;Samples;Min_cycle;Max_cycle;Signal;HPM_P1;HPM_P2
2022/08/09 00:04:13;;;;;;;;;;;;;;;;;;4915684;29;6690;-59
2022/08/09 00:06:38;;;;;;;;;;;;;;;;;;4915653;28;7409;-59
2022/08/09 00:09:04;;;;;;;;;;;;;;;;;;4915599;29;7210;-59
2022/08/09 00:11:35;;;;;;;;;;;;;;;;;;4915458;29;7212;-59
2022/08/09 00:14:02;;;;;;;;;;;;;;;;;;4915348;29;7438;-59
2022/08/09 00:19:30;;;;;;;;;;;;;;;;;;4915445;29;6977;-59
2022/08/09 00:21:55;;;;;;;;;;;;;;;;;;4915558;29;7442;-59
2022/08/09 00:24:24;;;;;;;;;;;;;;;;;;4949788;28;7182;-59
2022/08/09 00:26:49;;;;;;;;;;;;;;;;;;4915617;29;6945;-59
2022/08/09 00:29:16;;;;;;;;;;;;;;;;;;4915349;29;7134;-58
2022/08/09 00:32:04;;;;;;;;;;;;;;;;;;4915576;29;6993;-58
2022/08/09 00:34:29;;;;;;;;;;;;;;;;;;4915151;28;8279;-59
2022/08/09 00:36:55;;;;;;;;;;;;;;;;;;4915481;29;7185;-59
2022/08/09 00:42:35;;;;;;;;;;;;;;;;;;4915206;29;6725;-59
2022/08/09 00:45:03;;;;;;;;;;;;;;;;;;4916012;28;7180;-59
2022/08/09 00:50:43;;;;;;;;;;;;;;;;;;4918748;29;6772;-59
2022/08/09 00:53:09;;;;;;;;;;;;;;;;;;4918431;28;7082;-59
2022/08/09 00:55:35;;;;;;;;;;;;;;;;;;4918432;29;7477;-59
2022/08/09 00:58:01;;;;;;;;;;;;;;;;;;4918513;29;7256;-59
2022/08/09 01:00:27;;;;;;;;;;;;;;;;;;4918486;29;7077;-59
2022/08/09 01:05:55;;;;;;;;;;;;;;;;;;4918823;29;6797;-59
2022/08/09 01:08:27;;;;;;;;;;;;;;;;;;4918459;29;7104;-59
2022/08/09 01:10:55;;;;;;;;;;;;;;;;;;4918320;29;7037;-59
2022/08/09 01:13:21;;;;;;;;;;;;;;;;;;4918905;28;7081;-59
2022/08/09 01:18:58;;;;;;;;;;;;;;;;;;4917999;29;7002;-59
2022/08/09 01:21:43;;;;;;;;;;;;;;;;;;4918155;29;7250;-59
2022/08/09 01:24:08;;;;;;;;;;;;;;;;;;4928827;28;6985;-59
2022/08/09 01:29:42;;;;;;;;;;;;;;;;;;4936813;29;6688;-59
2022/08/09 01:35:23;;;;;;;;;;;;;;;;;;4937150;29;6950;-59
2022/08/09 01:37:52;;;;;;;;;;;;;;;;;;4936679;28;7389;-59
2022/08/09 01:40:41;;;;;;;;;;;;;;;;;;4936749;28;6979;-59
2022/08/09 01:43:09;;;;;;;;;;;;;;;;;;4937156;28;7244;-59
2022/08/09 01:45:35;;;;;;;;;;;;;;;;;;4937163;28;7065;-59
2022/08/09 01:48:33;;;;;;;;;;;;;;;;;;4937565;28;7211;-59
2022/08/09 01:51:01;;;;;;;;;;;;;;;;;;4937350;28;7275;-59
2022/08/09 01:53:28;;;;;;;;;;;;;;;;;;4936441;28;7196;-59
2022/08/09 01:56:25;;;;;;;;;;;;;;;;;;4936868;28;7459;-59
2022/08/09 01:58:52;;;;;;;;;;;;;;;;;;4936428;28;7187;-59
2022/08/09 02:01:19;;;;;;;;;;;;;;;;;;4936654;28;7124;-59
2022/08/09 02:04:19;;;;;;;;;;;;;;;;;;4937201;28;7283;-59
2022/08/09 02:07:07;;;;;;;;;;;;;;;;;;4936187;28;7005;-59
2022/08/09 02:09:36;;;;;;;;;;;;;;;;;;4936317;28;7438;-59
2022/08/09 02:12:06;;;;;;;;;;;;;;;;;;4936987;29;7140;-59
2022/08/09 02:14:33;;;;;;;;;;;;;;;;;;4936572;28;7185;-59
2022/08/09 02:20:34;;;;;;;;;;;;;;;;;;4936102;29;6680;-59
2022/08/09 02:23:09;;;;;;;;;;;;;;;;;;4936069;28;7063;-59
2022/08/09 02:25:38;;;;;;;;;;;;;;;;;;4936320;28;7074;-59
2022/08/09 02:28:13;;;;;;;;;;;;;;;;;;4936208;28;7610;-59
2022/08/09 02:30:49;;;;;;;;;;;;;;;;;;4936725;29;7062;-59
2022/08/09 02:33:18;;;;;;;;;;;;;;;;;;4937474;28;7184;-59
2022/08/09 02:35:46;;;;;;;;;;;;;;;;;;4936167;28;6976;-59
2022/08/09 02:38:30;;;;;;;;;;;;;;;;;;5001730;28;8543;-59
2022/08/09 02:40:59;;;;;;;;;;;;;;;;;;4937198;29;7143;-59
2022/08/09 02:43:28;;;;;;;;;;;;;;;;;;4936207;28;7065;-59
2022/08/09 02:45:56;;;;;;;;;;;;;;;;;;4936258;28;7131;-59
2022/08/09 02:51:31;;;;;;;;;;;;;;;;;;4935758;29;6700;-59
2022/08/09 02:53:59;;;;;;;;;;;;;;;;;;4936237;28;7208;-59
2022/08/09 02:56:26;;;;;;;;;;;;;;;;;;4963213;28;7203;-59
2022/08/09 03:02:15;;;;;;;;;;;;;;;;;;5015859;28;6946;-59
2022/08/09 03:04:42;;;;;;;;;;;;;;;;;;4917218;28;6953;-59
2022/08/09 03:07:09;;;;;;;;;;;;;;;;;;4916942;29;7199;-59
2022/08/09 03:12:35;;;;;;;;;;;;;;;;;;5035485;28;6760;-59
2022/08/09 03:15:02;;;;;;;;;;;;;;;;;;5035649;28;7030;-59
2022/08/09 03:17:38;;;;;;;;;;;;;;;;;;5035581;28;7249;-59
2022/08/09 03:20:04;;;;;;;;;;;;;;;;;;5035456;28;7245;-59
2022/08/09 03:22:57;;;;;;;;;;;;;;;;;;5035395;28;7397;-59
2022/08/09 03:25:24;;;;;;;;;;;;;;;;;;5015830;28;7212;-59
2022/08/09 03:31:26;;;;;;;;;;;;;;;;;;5035198;28;6778;-59
2022/08/09 03:33:53;;;;;;;;;;;;;;;;;;5035206;28;9140;-59
2022/08/09 03:36:19;;;;;;;;;;;;;;;;;;5035278;28;7228;-59
2022/08/09 03:38:45;;;;;;;;;;;;;;;;;;5035143;28;7119;-59
2022/08/09 03:41:12;;;;;;;;;;;;;;;;;;5017351;28;7242;-59
2022/08/09 03:44:01;;;;;;;;;;;;;;;;;;5035777;28;7104;-59
2022/08/09 03:46:26;;;;;;;;;;;;;;;;;;5035288;28;7227;-59
2022/08/09 03:48:56;;;;;;;;;;;;;;;;;;5034904;28;7072;-59
2022/08/09 03:51:23;;;;;;;;;;;;;;;;;;5035193;28;7038;-59
2022/08/09 03:53:50;;;;;;;;;;;;;;;;;;5034516;28;7988;-59
2022/08/09 03:56:16;;;;;;;;;;;;;;;;;;5034928;28;6966;-59
2022/08/09 03:58:54;;;;;;;;;;;;;;;;;;5034854;28;7016;-59
2022/08/09 04:01:19;;;;;;;;;;;;;;;;;;5033521;28;8437;-59
2022/08/09 04:12:54;;;;;;;;;;;;;;;;;;5034866;28;7044;-59
2022/08/09 04:21:28;;;;;;;;;;;;;;;;;;5033855;28;6683;-59
2022/08/09 04:24:10;;;;;;;;;;;;;;;;;;5034715;28;7171;-59
2022/08/09 04:26:36;;;;;;;;;;;;;;;;;;5034147;28;7201;-59
2022/08/09 04:31:56;;;;;;;;;;;;;;;;;;5034262;28;6997;-59
2022/08/09 04:34:21;;;;;;;;;;;;;;;;;;5034470;28;7072;-59
2022/08/09 04:37:18;;;;;;;;;;;;;;;;;;5034587;28;7034;-59
2022/08/09 04:39:43;;;;;;;;;;;;;;;;;;5031774;28;7614;-59
2022/08/09 04:45:13;;;;;;;;;;;;;;;;;;5033973;28;7054;-59
2022/08/09 04:47:38;;;;;;;;;;;;;;;;;;5016461;28;8621;-59
2022/08/09 04:53:24;;;;;;;;;;;;;;;;;;5034128;28;6926;-59
2022/08/09 04:55:49;;;;;;;;;;;;;;;;;;5034250;28;7255;-59
2022/08/09 04:58:19;;;;;;;;;;;;;;;;;;5035128;28;7009;-59
2022/08/09 05:00:44;;;;;;;;;;;;;;;;;;5033867;28;7231;-59
2022/08/09 05:03:10;;;;;;;;;;;;;;;;;;5034143;28;7866;-59
2022/08/09 05:05:35;;;;;;;;;;;;;;;;;;5034146;28;7229;-59
2022/08/09 05:08:03;;;;;;;;;;;;;;;;;;5033899;28;7027;-59
2022/08/09 05:10:28;;;;;;;;;;;;;;;;;;5031704;28;7162;-59
2022/08/09 05:12:54;;;;;;;;;;;;;;;;;;5034203;28;7428;-59
2022/08/09 05:15:19;;;;;;;;;;;;;;;;;;5033371;28;7117;-59
2022/08/09 05:17:47;;;;;;;;;;;;;;;;;;5034774;28;7411;-59
2022/08/09 05:20:12;;;;;;;;;;;;;;;;;;5033712;28;7267;-59
2022/08/09 05:22:45;;;;;;;;;;;;;;;;;;5034173;28;7111;-59
2022/08/09 05:25:11;;;;;;;;;;;;;;;;;;5033800;28;7947;-59
2022/08/09 05:27:36;;;;;;;;;;;;;;;;;;5034547;28;7087;-59
2022/08/09 05:33:04;;;;;;;;;;;;;;;;;;5035895;28;6693;-59
2022/08/09 05:35:30;;;;;;;;;;;;;;;;;;5037522;28;7026;-59
2022/08/09 05:38:13;;;;;;;;;;;;;;;;;;5038183;28;7139;-59
2022/08/09 05:40:39;;;;;;;;;;;;;;;;;;5037489;28;7067;-59
2022/08/09 05:43:06;;;;;;;;;;;;;;;;;;5037965;28;7216;-59
2022/08/09 05:45:32;;;;;;;;;;;;;;;;;;5019268;28;8424;-59
2022/08/09 05:48:15;;;;;;;;;;;;;;;;;;5036995;28;7173;-59
2022/08/09 05:50:43;;;;;;;;;;;;;;;;;;5019324;28;8521;-59
2022/08/09 05:53:10;;;;;;;;;;;;;;;;;;5037218;28;7358;-59
2022/08/09 05:55:36;;;;;;;;;;;;;;;;;;5037159;28;7210;-59
2022/08/09 05:58:01;;;;;;;;;;;;;;;;;;5037407;28;7208;-59
2022/08/09 06:00:29;;;;;;;;;;;;;;;;;;5048581;28;7218;-59
2022/08/09 06:02:56;;;;;;;;;;;;;;;;;;5057060;28;6971;-59
2022/08/09 06:05:35;;;;;;;;;;;;;;;;;;5056950;28;7115;-59
2022/08/09 06:08:00;;;;;;;;;;;;;;;;;;5056803;28;7080;-59
2022/08/09 06:10:36;;;;;;;;;;;;;;;;;;5033914;28;7261;-59
2022/08/09 06:13:03;;;;;;;;;;;;;;;;;;5019676;28;7294;-59
2022/08/09 06:15:31;;;;;;;;;;;;;;;;;;5036693;28;7282;-59
2022/08/09 06:17:56;;;;;;;;;;;;;;;;;;5036640;28;7033;-59
2022/08/09 06:26:43;;;;;;;;;;;;;;;;;;5036781;28;6995;-59
2022/08/09 06:29:09;;;;;;;;;;;;;;;;;;5036440;28;7110;-59
2022/08/09 06:34:38;;;;;;;;;;;;;;;;;;5036261;28;6688;-59
2022/08/09 06:37:05;;;;;;;;;;;;;;;;;;5036985;28;7060;-59
2022/08/09 06:39:31;;;;;;;;;;;;;;;;;;5036366;28;7073;-59
2022/08/09 06:42:04;;;;;;;;;;;;;;;;;;5036635;28;6948;-59
2022/08/09 06:44:30;;;;;;;;;;;;;;;;;;5035742;28;8198;-60
2022/08/09 06:46:55;;;;;;;;;;;;;;;;;;5036136;28;7412;-60
2022/08/09 06:49:21;;;;;;;;;;;;;;;;;;5036175;28;7202;-60
2022/08/09 06:51:46;;;;;;;;;;;;;;;;;;5036129;28;7363;-60
2022/08/09 06:54:12;;;;;;;;;;;;;;;;;;5035890;28;7422;-59
2022/08/09 06:56:37;;;;;;;;;;;;;;;;;;5036086;28;7364;-60
2022/08/09 06:59:06;;;;;;;;;;;;;;;;;;5035870;28;7393;-60
2022/08/09 07:01:31;;;;;;;;;;;;;;;;;;5035658;28;7239;-60
2022/08/09 07:04:14;;;;;;;;;;;;;;;;;;5035771;28;7236;-60
2022/08/09 07:06:40;;;;;;;;;;;;;;;;;;5035797;28;7214;-59
2022/08/09 07:09:06;;;;;;;;;;;;;;;;;;5035679;28;6922;-59
2022/08/09 07:11:32;;;;;;;;;;;;;;;;;;5048746;28;6965;-59
2022/08/09 07:14:20;;;;;;;;;;;;;;;;;;5056394;28;7071;-59
2022/08/09 07:16:46;;;;;;;;;;;;;;;;;;5055496;28;7170;-59
2022/08/09 07:19:12;;;;;;;;;;;;;;;;;;5055290;28;7492;-59
2022/08/09 07:22:11;;;;;;;;;;;;;;;;;;5055460;28;7139;-59
2022/08/09 07:24:37;;;;;;;;;;;;;;;;;;5056049;28;7064;-59
2022/08/09 07:27:03;;;;;;;;;;;;;;;;;;5055614;28;7379;-59
2022/08/09 07:29:30;;;;;;;;;;;;;;;;;;5056364;28;7134;-60
2022/08/09 07:31:58;;;;;;;;;;;;;;;;;;5054959;28;7182;-60
2022/08/09 07:34:24;;;;;;;;;;;;;;;;;;5055115;28;7167;-60
2022/08/09 07:39:52;;;;;;;;;;;;;;;;;;5055271;28;6702;-60
2022/08/09 07:42:18;;;;;;;;;;;;;;;;;;5054945;28;7285;-60
2022/08/09 07:48:17;;;;;;;;;;;;;;;;;;5054748;28;7012;-59
2022/08/09 07:50:43;;;;;;;;;;;;;;;;;;5054874;28;7298;-59
2022/08/09 07:53:09;;;;;;;;;;;;;;;;;;5054901;28;7125;-59
2022/08/09 07:55:34;;;;;;;;;;;;;;;;;;5054064;28;7434;-59
2022/08/09 07:58:15;;;;;;;;;;;;;;;;;;5055344;28;7296;-59
2022/08/09 08:00:41;;;;;;;;;;;;;;;;;;5054400;28;6984;-59
2022/08/09 08:06:09;;;;;;;;;;;;;;;;;;5054570;28;6715;-59
2022/08/09 08:08:35;;;;;;;;;;;;;;;;;;5054569;28;7145;-59
2022/08/09 08:11:01;;;;;;;;;;;;;;;;;;5053620;28;6826;-59
2022/08/09 08:13:26;;;;;;;;;;;;;;;;;;5055356;28;6949;-59
2022/08/09 08:15:52;;;;;;;;;;;;;;;;;;5054575;28;7048;-59
2022/08/09 08:18:36;;;;;;;;;;;;;;;;;;5054458;28;7597;-59
2022/08/09 08:21:02;;;;;;;;;;;;;;;;;;5054261;28;7884;-59
2022/08/09 08:23:27;;;;;;;;;;;;;;;;;;5054242;28;6994;-59
2022/08/09 08:26:08;;;;;;;;;;;;;;;;;;5055601;28;7184;-59
2022/08/09 08:28:34;;;;;;;;;;;;;;;;;;5054303;28;7134;-59
2022/08/09 08:31:01;;;;;;;;;;;;;;;;;;5054257;28;7106;-59
2022/08/09 08:33:26;;;;;;;;;;;;;;;;;;5054154;28;7286;-59
2022/08/09 08:35:52;;;;;;;;;;;;;;;;;;5054383;28;6959;-59
2022/08/09 08:38:18;;;;;;;;;;;;;;;;;;5054321;28;7098;-59
2022/08/09 08:41:02;;;;;;;;;;;;;;;;;;5054391;28;7139;-59
2022/08/09 08:43:29;;;;;;;;;;;;;;;;;;5050345;28;7268;-60
2022/08/09 08:46:02;;;;;;;;;;;;;;;;;;5054190;28;7360;-60
2022/08/09 08:48:37;;;;;;;;;;;;;;;;;;5035988;28;8803;-59
2022/08/09 08:51:05;;;;;;;;;;;;;;;;;;5054129;28;7059;-59
2022/08/09 08:53:52;;;;;;;;;;;;;;;;;;5054195;28;7239;-59
2022/08/09 08:56:19;;;;;;;;;;;;;;;;;;5053998;28;7414;-59
2022/08/09 08:58:45;;;;;;;;;;;;;;;;;;5053896;28;7000;-59
2022/08/09 09:01:22;;;;;;;;;;;;;;;;;;5054067;28;7325;-59
2022/08/09 09:03:48;;;;;;;;;;;;;;;;;;5053957;28;7187;-59
2022/08/09 09:06:34;;;;;;;;;;;;;;;;;;5054887;28;7148;-59
2022/08/09 09:09:02;;;;;;;;;;;;;;;;;;5058535;28;7165;-59
2022/08/09 09:11:28;;;;;;;;;;;;;;;;;;5057363;28;7117;-59
2022/08/09 09:13:57;;;;;;;;;;;;;;;;;;5057464;28;7248;-59
2022/08/09 09:16:24;;;;;;;;;;;;;;;;;;5057333;28;8663;-59
2022/08/09 09:19:06;;;;;;;;;;;;;;;;;;5057529;28;7087;-59
2022/08/09 09:21:32;;;;;;;;;;;;;;;;;;5057488;28;7185;-60
2022/08/09 09:24:11;;;;;;;;;;;;;;;;;;5057532;28;7269;-59
2022/08/09 09:26:54;;;;;;;;;;;;;;;;;;5057512;28;7216;-59
2022/08/09 09:29:33;;;;;;;;;;;;;;;;;;5057154;28;7186;-60
2022/08/09 09:32:00;;;;;;;;;;;;;;;;;;5057160;28;7388;-60
2022/08/09 09:34:27;;;;;;;;;;;;;;;;;;5039282;28;8880;-59
2022/08/09 09:36:54;;;;;;;;;;;;;;;;;;5057236;28;7479;-59
2022/08/09 09:39:25;;;;;;;;;;;;;;;;;;5057152;28;7493;-59
2022/08/09 09:42:03;;;;;;;;;;;;;;;;;;5057499;28;7157;-58
2022/08/09 09:44:33;;;;;;;;;;;;;;;;;;5057091;28;7113;-58
2022/08/09 09:47:07;;;;;;;;;;;;;;;;;;5057079;28;7232;-56
2022/08/09 09:49:34;;;;;;;;;;;;;;;;;;5056458;28;7056;-56
2022/08/09 09:52:01;;;;;;;;;;;;;;;;;;5056452;28;7530;-58
2022/08/09 09:54:34;;;;;;;;;;;;;;;;;;5057213;28;7437;-57
2022/08/09 09:59:54;;;;;;;;;;;;;;;;;;5057230;28;7175;-56
2022/08/09 10:02:20;;;;;;;;;;;;;;;;;;5056838;28;7032;-58
2022/08/09 10:05:15;;;;;;;;;;;;;;;;;;5056407;28;7430;-58
2022/08/09 10:07:41;;;;;;;;;;;;;;;;;;5051885;28;6971;-55
2022/08/09 10:13:12;;;;;;;;;;;;;;;;;;5055699;28;6833;-58
2022/08/09 10:15:46;;;;;;;;;;;;;;;;;;5056523;28;7193;-58
2022/08/09 10:18:12;;;;;;;;;;;;;;;;;;5055798;28;7275;-57
2022/08/09 10:20:37;;;;;;;;;;;;;;;;;;5056402;28;7069;-58
2022/08/09 10:23:23;;;;;;;;;;;;;;;;;;5056744;28;7197;-58
2022/08/09 10:25:50;;;;;;;;;;;;;;;;;;5038375;28;8458;-57
2022/08/09 10:28:50;;;;;;;;;;;;;;;;;;5056201;28;7514;-54
2022/08/09 10:31:17;;;;;;;;;;;;;;;;;;5056331;28;7296;-56
2022/08/09 10:33:50;;;;;;;;;;;;;;;;;;5055991;28;8175;-55
2022/08/09 10:36:16;;;;;;;;;;;;;;;;;;5056126;28;7535;-54
2022/08/09 10:38:44;;;;;;;;;;;;;;;;;;5056217;28;7429;-56
2022/08/09 10:41:09;;;;;;;;;;;;;;;;;;5056136;28;7209;-55
2022/08/09 10:43:36;;;;;;;;;;;;;;;;;;5055629;28;7206;-56
2022/08/09 10:46:32;;;;;;;;;;;;;;;;;;5055883;28;6983;-56
2022/08/09 10:49:16;;;;;;;;;;;;;;;;;;5036165;28;7214;-53
2022/08/09 10:51:47;;;;;;;;;;;;;;;;;;5056295;28;7478;-56
2022/08/09 10:54:22;;;;;;;;;;;;;;;;;;5055835;28;7211;-55
2022/08/09 10:59:54;;;;;;;;;;;;;;;;;;5055667;28;7103;-52
2022/08/09 11:02:37;;;;;;;;;;;;;;;;;;5055881;28;7154;-52
2022/08/09 11:05:14;;;;;;;;;;;;;;;;;;5054503;28;7188;-55
2022/08/09 11:07:40;;;;;;;;;;;;;;;;;;5055730;28;7492;-56
2022/08/09 11:10:29;;;;;;;;;;;;;;;;;;5055311;28;7409;-55
2022/08/09 11:13:08;;;;;;;;;;;;;;;;;;5055308;28;7375;-56
2022/08/09 11:15:33;;;;;;;;;;;;;;;;;;5055414;28;6979;-56
2022/08/09 11:18:31;;;;;;;;;;;;;;;;;;5056172;28;7148;-53
2022/08/09 11:20:57;;;;;;;;;;;;;;;;;;5055274;28;7231;-55
2022/08/09 11:23:23;;;;;;;;;;;;;;;;;;5055008;28;6987;-56
2022/08/09 11:25:49;;;;;;;;;;;;;;;;;;5054715;28;6992;-54
2022/08/09 11:28:26;;;;;;;;;;;;;;;;;;5055800;28;7416;-56
2022/08/09 11:33:54;;;;;;;;;;;;;;;;;;5055495;28;7295;-56
2022/08/09 11:36:25;;;;;;;;;;;;;;;;;;5054780;28;7777;-56
2022/08/09 11:39:07;;;;;;;;;;;;;;;;;;5054726;28;7070;-56
2022/08/09 11:41:34;;;;;;;;;;;;;;;;;;5054839;28;7067;-57
2022/08/09 11:43:59;;;;;;;;;;;;;;;;;;5054943;28;7106;-56
2022/08/09 11:46:27;;;;;;;;;;;;;;;;;;5054550;28;7457;-56
2022/08/09 11:49:25;;;;;;;;;;;;;;;;;;5054550;28;7079;-56
2022/08/09 11:52:02;;;;;;;;;;;;;;;;;;5054830;28;7248;-55
2022/08/09 11:54:28;;;;;;;;;;;;;;;;;;5054340;28;7241;-53
2022/08/09 11:56:54;;;;;;;;;;;;;;;;;;5054616;28;7148;-54
2022/08/09 11:59:27;;;;;;;;;;;;;;;;;;5054640;28;7148;-54
2022/08/09 12:01:53;;;;;;;;;;;;;;;;;;5054702;28;7186;-53
2022/08/09 12:04:37;;;;;;;;;;;;;;;;;;5054779;28;7441;-56
2022/08/09 12:07:29;;;;;;;;;;;;;;;;;;5054653;28;7178;-56
2022/08/09 12:09:59;;;;;;;;;;;;;;;;;;5053132;28;7177;-51
2022/08/09 12:12:25;;;;;;;;;;;;;;;;;;5053943;28;7990;-55
2022/08/09 12:14:51;;;;;;;;;;;;;;;;;;5054603;28;7165;-56
2022/08/09 12:17:18;;;;;;;;;;;;;;;;;;5054435;28;7063;-55
2022/08/09 12:19:44;;;;;;;;;;;;;;;;;;5054101;28;7076;-54
2022/08/09 12:22:09;;;;;;;;;;;;;;;;;;5054468;28;6956;-51
2022/08/09 12:24:50;;;;;;;;;;;;;;;;;;5054270;28;7421;-55
2022/08/09 12:27:19;;;;;;;;;;;;;;;;;;5054392;28;6983;-56
2022/08/09 12:29:55;;;;;;;;;;;;;;;;;;5053909;28;7198;-54
2022/08/09 12:32:24;;;;;;;;;;;;;;;;;;5054313;28;7141;-52
2022/08/09 12:38:16;;;;;;;;;;;;;;;;;;5054465;28;6972;-50
2022/08/09 12:40:43;;;;;;;;;;;;;;;;;;5054186;28;7031;-55
2022/08/09 12:43:09;;;;;;;;;;;;;;;;;;5058516;28;6985;-57
2022/08/09 12:45:35;;;;;;;;;;;;;;;;;;5058294;28;7073;-54
2022/08/09 12:48:01;;;;;;;;;;;;;;;;;;5057993;28;7063;-55
2022/08/09 12:50:35;;;;;;;;;;;;;;;;;;5057775;28;8071;-56
2022/08/09 12:53:00;;;;;;;;;;;;;;;;;;5040368;28;7062;-52
2022/08/09 12:55:29;;;;;;;;;;;;;;;;;;5057493;28;7824;-53
2022/08/09 13:00:58;;;;;;;;;;;;;;;;;;5058018;28;6762;-53
2022/08/09 13:06:31;;;;;;;;;;;;;;;;;;5058063;28;6977;-54
2022/08/09 13:09:11;;;;;;;;;;;;;;;;;;5057960;28;7069;-56
2022/08/09 13:11:56;;;;;;;;;;;;;;;;;;5057557;28;7259;-56
2022/08/09 13:14:26;;;;;;;;;;;;;;;;;;5057566;28;7010;-56
2022/08/09 13:17:13;;;;;;;;;;;;;;;;;;5057624;28;7630;-56
2022/08/09 13:19:41;;;;;;;;;;;;;;;;;;5057651;28;7218;-55
2022/08/09 13:22:39;;;;;;;;;;;;;;;;;;5057689;28;7074;-53
2022/08/09 13:25:05;;;;;;;;;;;;;;;;;;5057115;28;7056;-57
2022/08/09 13:27:36;;;;;;;;;;;;;;;;;;5058597;28;7307;-56
2022/08/09 13:30:02;;;;;;;;;;;;;;;;;;5057062;28;7283;-57
2022/08/09 13:32:48;;;;;;;;;;;;;;;;;;5057298;28;7219;-55
2022/08/09 13:35:15;;;;;;;;;;;;;;;;;;5056388;28;7105;-57
2022/08/09 13:40:42;;;;;;;;;;;;;;;;;;5057344;28;7006;-56
2022/08/09 13:43:18;;;;;;;;;;;;;;;;;;5057336;28;7657;-56
2022/08/09 13:45:43;;;;;;;;;;;;;;;;;;5057261;28;7149;-57
2022/08/09 13:48:25;;;;;;;;;;;;;;;;;;5056632;28;7200;-56
2022/08/09 13:50:51;;;;;;;;;;;;;;;;;;5057145;28;7222;-54
2022/08/09 13:53:17;;;;;;;;;;;;;;;;;;5055799;28;7055;-57
2022/08/09 13:55:43;;;;;;;;;;;;;;;;;;5056709;28;7214;-57
2022/08/09 13:58:08;;;;;;;;;;;;;;;;;;5056306;28;7074;-57
2022/08/09 14:00:37;;;;;;;;;;;;;;;;;;5056316;28;7154;-57
2022/08/09 14:03:02;;;;;;;;;;;;;;;;;;5055444;28;7510;-57
2022/08/09 14:05:28;;;;;;;;;;;;;;;;;;5056400;28;7188;-57
2022/08/09 14:08:04;;;;;;;;;;;;;;;;;;5056554;28;7078;-56
2022/08/09 14:10:49;;;;;;;;;;;;;;;;;;5056650;28;7190;-56
2022/08/09 14:13:28;;;;;;;;;;;;;;;;;;5056404;28;7293;-57
2022/08/09 14:15:53;;;;;;;;;;;;;;;;;;5056576;28;7102;-57
2022/08/09 14:18:34;;;;;;;;;;;;;;;;;;5056725;28;7128;-54
2022/08/09 14:21:00;;;;;;;;;;;;;;;;;;5055756;28;9401;-58
2022/08/09 14:23:25;;;;;;;;;;;;;;;;;;5056354;28;7236;-57
2022/08/09 14:25:51;;;;;;;;;;;;;;;;;;5056362;28;7221;-56
2022/08/09 14:28:23;;;;;;;;;;;;;;;;;;5056460;28;8467;-57
2022/08/09 14:30:48;;;;;;;;;;;;;;;;;;5055999;28;7239;-57
2022/08/09 14:33:14;;;;;;;;;;;;;;;;;;5056256;28;7237;-61
2022/08/09 14:35:40;;;;;;;;;;;;;;;;;;5045600;28;7460;-61
2022/08/09 14:38:05;;;;;;;;;;;;;;;;;;5018414;28;7217;-57
2022/08/09 14:40:31;;;;;;;;;;;;;;;;;;5035995;28;7169;-57
2022/08/09 14:42:56;;;;;;;;;;;;;;;;;;5036046;28;7364;-60
2022/08/09 14:45:22;;;;;;;;;;;;;;;;;;5035739;28;8006;-59
2022/08/09 14:48:07;;;;;;;;;;;;;;;;;;5036120;28;6916;-59
2022/08/09 14:50:34;;;;;;;;;;;;;;;;;;5036052;28;7201;-59
2022/08/09 14:53:00;;;;;;;;;;;;;;;;;;5036134;28;7117;-57
2022/08/09 14:55:26;;;;;;;;;;;;;;;;;;5035541;28;7233;-57
2022/08/09 14:57:54;;;;;;;;;;;;;;;;;;5035758;28;6982;-57
2022/08/09 15:00:21;;;;;;;;;;;;;;;;;;5035531;28;7219;-58
2022/08/09 15:02:50;;;;;;;;;;;;;;;;;;5035766;28;7131;-56
2022/08/09 15:05:16;;;;;;;;;;;;;;;;;;5035481;28;7317;-56
2022/08/09 15:07:41;;;;;;;;;;;;;;;;;;5035462;28;7211;-58
2022/08/09 15:10:07;;;;;;;;;;;;;;;;;;5035384;28;7352;-58
2022/08/09 15:12:33;;;;;;;;;;;;;;;;;;5035288;28;7049;-56
2022/08/09 15:14:58;;;;;;;;;;;;;;;;;;5035358;28;7347;-57
2022/08/09 15:17:24;;;;;;;;;;;;;;;;;;5035106;28;7457;-55
2022/08/09 15:19:50;;;;;;;;;;;;;;;;;;5035406;28;7149;-58
2022/08/09 15:22:22;;;;;;;;;;;;;;;;;;5035607;28;7351;-58
2022/08/09 15:24:48;;;;;;;;;;;;;;;;;;5035064;28;7286;-58
2022/08/09 15:27:13;;;;;;;;;;;;;;;;;;5018078;28;7219;-58
2022/08/09 15:29:39;;;;;;;;;;;;;;;;;;5035098;28;7375;-57
2022/08/09 15:32:04;;;;;;;;;;;;;;;;;;5035152;28;7369;-58
2022/08/09 15:37:41;;;;;;;;;;;;;;;;;;5034895;28;7007;-57
2022/08/09 15:40:08;;;;;;;;;;;;;;;;;;5035021;28;7208;-57
2022/08/09 15:45:45;;;;;;;;;;;;;;;;;;5034601;28;6723;-58
2022/08/09 15:48:11;;;;;;;;;;;;;;;;;;5034812;28;7355;-57
2022/08/09 15:57:07;;;;;;;;;;;;;;;;;;5034626;28;7156;-57
2022/08/09 15:59:33;;;;;;;;;;;;;;;;;;5034562;28;8277;-57
2022/08/09 16:02:00;;;;;;;;;;;;;;;;;;5034742;28;7144;-57
2022/08/09 16:04:26;;;;;;;;;;;;;;;;;;5034555;28;7515;-56
2022/08/09 16:06:51;;;;;;;;;;;;;;;;;;5034502;28;7049;-56
2022/08/09 16:09:28;;;;;;;;;;;;;;;;;;5034318;28;7123;-57
2022/08/09 16:11:53;;;;;;;;;;;;;;;;;;5034488;28;7466;-58
2022/08/09 16:14:54;;;;;;;;;;;;;;;;;;5034749;28;7238;-57
2022/08/09 16:17:20;;;;;;;;;;;;;;;;;;5033507;28;7072;-56
2022/08/09 16:19:45;;;;;;;;;;;;;;;;;;5034441;28;7391;-57
2022/08/09 16:22:47;;;;;;;;;;;;;;;;;;5034383;28;7275;-56
2022/08/09 16:25:12;;;;;;;;;;;;;;;;;;5034320;28;7196;-57
2022/08/09 16:27:38;;;;;;;;;;;;;;;;;;5034464;28;7192;-56
2022/08/09 16:33:14;;;;;;;;;;;;;;;;;;5034215;28;6744;-56
2022/08/09 16:35:41;;;;;;;;;;;;;;;;;;5034421;28;7268;-56
2022/08/09 16:38:21;;;;;;;;;;;;;;;;;;5034043;28;6940;-56
2022/08/09 16:40:47;;;;;;;;;;;;;;;;;;5034287;28;7496;-57
2022/08/09 16:43:13;;;;;;;;;;;;;;;;;;5034066;28;7211;-58
2022/08/09 16:45:39;;;;;;;;;;;;;;;;;;5033996;28;7517;-56
2022/08/09 16:51:08;;;;;;;;;;;;;;;;;;5034085;28;7037;-56
2022/08/09 16:53:34;;;;;;;;;;;;;;;;;;5033741;28;7132;-56
2022/08/09 16:56:08;;;;;;;;;;;;;;;;;;5034132;28;7016;-55
2022/08/09 16:58:34;;;;;;;;;;;;;;;;;;5034074;28;7340;-57
2022/08/09 17:01:00;;;;;;;;;;;;;;;;;;5033507;28;7072;-57
2022/08/09 17:03:32;;;;;;;;;;;;;;;;;;5034305;28;7407;-57
2022/08/09 17:05:58;;;;;;;;;;;;;;;;;;5033844;28;7229;-57
2022/08/09 17:11:27;;;;;;;;;;;;;;;;;;5034394;28;6993;-53
2022/08/09 17:13:52;;;;;;;;;;;;;;;;;;5031684;28;7368;-57
2022/08/09 17:16:18;;;;;;;;;;;;;;;;;;5034045;28;7221;-54
2022/08/09 17:18:44;;;;;;;;;;;;;;;;;;5033921;28;7194;-57
2022/08/09 17:21:20;;;;;;;;;;;;;;;;;;5034150;28;7117;-57
2022/08/09 17:23:46;;;;;;;;;;;;;;;;;;5033838;28;7097;-57
2022/08/09 17:26:14;;;;;;;;;;;;;;;;;;5033936;28;6998;-56
2022/08/09 17:28:40;;;;;;;;;;;;;;;;;;5036702;28;7237;-57
2022/08/09 17:31:06;;;;;;;;;;;;;;;;;;5037288;28;7453;-57
2022/08/09 17:33:42;;;;;;;;;;;;;;;;;;5037461;28;7137;-56
2022/08/09 17:36:08;;;;;;;;;;;;;;;;;;5037673;28;7212;-56
2022/08/09 17:38:34;;;;;;;;;;;;;;;;;;5037435;28;7276;-53
2022/08/09 17:44:02;;;;;;;;;;;;;;;;;;5036830;28;6716;-57
2022/08/09 17:46:47;;;;;;;;;;;;;;;;;;5037216;28;7446;-57
2022/08/09 17:49:12;;;;;;;;;;;;;;;;;;5037042;28;7203;-56
2022/08/09 17:54:41;;;;;;;;;;;;;;;;;;5036804;28;6972;-56
2022/08/09 17:57:07;;;;;;;;;;;;;;;;;;5037125;28;7179;-58
2022/08/09 17:59:42;;;;;;;;;;;;;;;;;;5037105;28;7132;-57
2022/08/09 18:02:07;;;;;;;;;;;;;;;;;;5037020;28;7333;-57
2022/08/09 18:04:33;;;;;;;;;;;;;;;;;;5037005;28;7185;-57
2022/08/09 18:07:06;;;;;;;;;;;;;;;;;;5037184;28;7173;-56
2022/08/09 18:09:31;;;;;;;;;;;;;;;;;;5036248;28;7218;-57
2022/08/09 18:11:57;;;;;;;;;;;;;;;;;;5037127;28;7099;-57
2022/08/09 18:14:24;;;;;;;;;;;;;;;;;;5035275;28;7168;-58
2022/08/09 18:16:50;;;;;;;;;;;;;;;;;;5036525;28;7108;-57
2022/08/09 18:19:17;;;;;;;;;;;;;;;;;;5037260;28;7090;-57
2022/08/09 18:21:43;;;;;;;;;;;;;;;;;;5036500;28;7212;-58
2022/08/09 18:24:40;;;;;;;;;;;;;;;;;;5036033;28;7284;-56
2022/08/09 18:27:07;;;;;;;;;;;;;;;;;;5036589;28;7147;-57
2022/08/09 18:29:42;;;;;;;;;;;;;;;;;;5036136;28;7445;-57
2022/08/09 18:32:08;;;;;;;;;;;;;;;;;;5036089;28;7718;-57
2022/08/09 18:34:50;;;;;;;;;;;;;;;;;;5036321;28;7142;-58
2022/08/09 18:37:16;;;;;;;;;;;;;;;;;;5036279;28;7282;-58
2022/08/09 18:39:49;;;;;;;;;;;;;;;;;;5035420;28;7128;-57
2022/08/09 18:42:16;;;;;;;;;;;;;;;;;;5036257;28;7338;-57
2022/08/09 18:44:50;;;;;;;;;;;;;;;;;;5035698;28;7237;-57
2022/08/09 18:47:17;;;;;;;;;;;;;;;;;;5036093;28;7166;-57
2022/08/09 18:49:43;;;;;;;;;;;;;;;;;;5036140;28;7487;-57
2022/08/09 18:52:10;;;;;;;;;;;;;;;;;;5035949;28;7426;-56
2022/08/09 18:54:49;;;;;;;;;;;;;;;;;;5035735;28;7417;-57
2022/08/09 18:57:14;;;;;;;;;;;;;;;;;;5035801;28;7213;-58
2022/08/09 18:59:40;;;;;;;;;;;;;;;;;;5035767;28;7020;-58
2022/08/09 19:02:06;;;;;;;;;;;;;;;;;;5035805;28;7419;-58
2022/08/09 19:04:32;;;;;;;;;;;;;;;;;;5035492;28;7148;-58
2022/08/09 19:07:26;;;;;;;;;;;;;;;;;;5036152;28;6936;-58
2022/08/09 19:09:52;;;;;;;;;;;;;;;;;;5035527;28;7002;-58
2022/08/09 19:15:20;;;;;;;;;;;;;;;;;;5035037;28;7438;-58
2022/08/09 19:18:01;;;;;;;;;;;;;;;;;;5036340;28;7562;-58
2022/08/09 19:20:28;;;;;;;;;;;;;;;;;;5034739;28;7360;-58
2022/08/09 19:22:54;;;;;;;;;;;;;;;;;;5035442;28;7350;-58
2022/08/09 19:25:19;;;;;;;;;;;;;;;;;;5035014;28;8191;-58
2022/08/09 19:27:45;;;;;;;;;;;;;;;;;;5035206;28;7050;-58
2022/08/09 19:30:11;;;;;;;;;;;;;;;;;;5034770;28;7068;-58
2022/08/09 19:32:37;;;;;;;;;;;;;;;;;;5035278;28;7111;-58
2022/08/09 19:35:25;;;;;;;;;;;;;;;;;;5034946;28;7044;-58
2022/08/09 19:37:52;;;;;;;;;;;;;;;;;;5035093;28;6857;-58
2022/08/09 19:40:17;;;;;;;;;;;;;;;;;;5035100;28;7196;-58
2022/08/09 19:43:06;;;;;;;;;;;;;;;;;;5035156;28;7066;-58
2022/08/09 19:45:32;;;;;;;;;;;;;;;;;;5035130;28;7070;-58
2022/08/09 19:48:01;;;;;;;;;;;;;;;;;;5034920;28;7493;-58